Time;durP1;ratioP1;P1;durP2;ratioP2;P2;SDS_P1;SDS_P2;PMS_P1;PMS_P2;Temp;Humidity;BMP_temperature;BMP_pressure;BME280_temperature;BME280_humidity;BME280_pressure;Samples;Min_cycle;Max_cycle;Signal;HPM_P1;HPM_P2
2022/03/27 00:00:53;;;;;;;2.00;0.83;;;7.20;99.90;;;;;;5044941;28;20252;-86
2022/03/27 00:03:19;;;;;;;0.90;0.87;;;7.20;99.90;;;;;;5061122;28;20201;-86
2022/03/27 00:05:44;;;;;;;2.10;1.10;;;7.20;99.90;;;;;;5062109;28;20193;-85
2022/03/27 00:08:10;;;;;;;1.63;1.27;;;7.10;99.90;;;;;;5060731;28;20229;-86
2022/03/27 00:11:23;;;;;;;3.00;2.13;;;7.00;99.90;;;;;;5061526;28;20711;-85
2022/03/27 00:13:21;;;;;;;1.60;1.50;;;7.00;99.90;;;;;;5075664;28;20232;-85
2022/03/27 00:15:47;;;;;;;2.50;2.03;;;6.90;99.90;;;;;;5064252;28;20224;-85
2022/03/27 00:18:13;;;;;;;3.53;2.00;;;6.90;99.90;;;;;;5045607;28;20634;-84
2022/03/27 00:20:39;;;;;;;4.83;3.17;;;6.90;99.90;;;;;;5046811;28;20209;-85
2022/03/27 00:23:04;;;;;;;3.87;2.20;;;6.80;99.90;;;;;;5062513;28;20224;-85
2022/03/27 00:25:31;;;;;;;1.93;1.83;;;6.90;99.90;;;;;;5064344;28;20236;-85
2022/03/27 00:27:57;;;;;;;3.97;3.57;;;6.80;99.90;;;;;;5062530;28;20243;-84
2022/03/27 00:30:23;;;;;;;2.40;2.20;;;6.80;99.90;;;;;;5079299;28;20340;-85
2022/03/27 00:32:49;;;;;;;7.03;3.07;;;6.80;99.90;;;;;;5064329;28;20284;-85
2022/03/27 00:35:15;;;;;;;2.47;1.73;;;6.80;99.90;;;;;;5063810;28;20228;-85
2022/03/27 00:37:40;;;;;;;3.10;1.73;;;6.80;99.90;;;;;;5046735;28;20426;-85
2022/03/27 00:40:08;;;;;;;2.07;1.63;;;6.80;99.90;;;;;;5045807;28;20308;-85
2022/03/27 00:42:33;;;;;;;1.50;1.40;;;6.80;99.90;;;;;;5061919;28;20217;-85
2022/03/27 00:44:59;;;;;;;1.10;0.80;;;6.70;99.90;;;;;;5080444;28;20513;-83
2022/03/27 00:47:25;;;;;;;4.00;1.83;;;6.70;99.90;;;;;;5046117;28;20750;-86
2022/03/27 00:49:51;;;;;;;2.23;1.83;;;6.80;99.90;;;;;;5062886;28;20263;-86
2022/03/27 00:52:17;;;;;;;1.23;1.13;;;6.80;99.90;;;;;;5062666;28;20225;-86
2022/03/27 00:54:43;;;;;;;1.17;0.97;;;6.70;99.90;;;;;;5045901;28;20876;-86
2022/03/27 00:57:09;;;;;;;1.73;1.63;;;6.70;99.90;;;;;;5063783;28;20212;-86
2022/03/27 00:59:34;;;;;;;1.17;1.07;;;6.70;99.90;;;;;;5045470;28;20189;-85
2022/03/27 01:02:01;;;;;;;0.97;0.67;;;6.70;99.90;;;;;;5045872;28;20231;-85
2022/03/27 01:04:28;;;;;;;1.70;1.40;;;6.60;99.90;;;;;;5062358;28;20236;-88
2022/03/27 01:06:55;;;;;;;1.93;1.83;;;6.60;99.90;;;;;;5046415;28;20217;-88
2022/03/27 01:09:36;;;;;;;1.00;1.00;;;6.70;99.90;;;;;;5063446;28;20239;-88
2022/03/27 01:12:19;;;;;;;1.97;1.40;;;6.70;99.90;;;;;;5079236;28;20182;-87
2022/03/27 01:14:45;;;;;;;0.87;0.87;;;6.80;99.90;;;;;;5064026;28;20286;-87
2022/03/27 01:17:16;;;;;;;7.77;1.47;;;6.70;99.90;;;;;;5046657;28;20221;-86
2022/03/27 01:19:50;;;;;;;0.97;0.93;;;6.70;99.90;;;;;;5045154;28;20225;-86
2022/03/27 01:22:17;;;;;;;1.73;1.10;;;6.80;99.90;;;;;;5063231;28;20275;-86
2022/03/27 01:24:43;;;;;;;0.90;0.80;;;6.80;99.90;;;;;;5044270;28;20541;-86
2022/03/27 01:27:09;;;;;;;0.67;0.67;;;6.80;99.90;;;;;;5079024;28;20193;-85
2022/03/27 01:29:35;;;;;;;1.80;1.70;;;6.80;99.90;;;;;;5061994;28;20193;-86
2022/03/27 01:32:03;;;;;;;1.60;1.20;;;6.80;99.90;;;;;;5062581;28;20685;-85
2022/03/27 01:34:29;;;;;;;2.40;1.03;;;6.80;99.90;;;;;;5061539;28;20897;-85
2022/03/27 01:36:55;;;;;;;1.70;1.33;;;6.70;99.90;;;;;;5045834;28;20235;-85
2022/03/27 01:39:21;;;;;;;1.87;1.13;;;6.60;99.90;;;;;;5061497;28;20231;-85
2022/03/27 01:41:47;;;;;;;2.10;1.30;;;6.60;99.90;;;;;;5063634;28;20189;-85
2022/03/27 01:44:16;;;;;;;5.00;1.27;;;6.60;99.90;;;;;;5079087;28;20578;-85
2022/03/27 01:46:43;;;;;;;2.03;0.77;;;6.60;99.90;;;;;;5062396;28;20227;-85
2022/03/27 01:49:12;;;;;;;13.43;1.50;;;6.60;99.90;;;;;;5062841;28;20245;-85
2022/03/27 01:51:39;;;;;;;3.20;0.90;;;6.60;99.90;;;;;;5078504;28;20581;-84
2022/03/27 01:54:06;;;;;;;1.57;1.47;;;6.40;99.90;;;;;;5043974;28;20236;-84
2022/03/27 01:56:32;;;;;;;0.53;0.53;;;6.30;99.90;;;;;;5044573;28;20264;-85
2022/03/27 01:58:59;;;;;;;0.77;0.77;;;6.20;99.90;;;;;;5042796;28;20771;-85
2022/03/27 02:01:25;;;;;;;2.93;1.57;;;6.10;99.90;;;;;;5056623;28;20236;-85
2022/03/27 02:03:51;;;;;;;0.87;0.57;;;6.10;99.90;;;;;;5043405;28;20221;-85
2022/03/27 02:06:18;;;;;;;1.30;0.93;;;6.10;99.90;;;;;;5063990;28;20986;-85
2022/03/27 02:08:44;;;;;;;1.23;1.13;;;6.10;99.90;;;;;;5049668;28;20189;-85
2022/03/27 02:11:11;;;;;;;1.67;1.57;;;6.10;99.90;;;;;;5047792;28;20271;-85
2022/03/27 02:13:37;;;;;;;1.13;1.07;;;6.10;99.90;;;;;;5066007;28;20235;-85
2022/03/27 02:16:03;;;;;;;2.07;1.43;;;6.10;99.90;;;;;;5048780;28;20681;-85
2022/03/27 02:18:30;;;;;;;2.93;2.63;;;6.20;99.90;;;;;;5065836;28;20255;-85
2022/03/27 02:20:57;;;;;;;3.63;2.80;;;6.30;99.90;;;;;;5066345;28;20196;-85
2022/03/27 02:23:24;;;;;;;1.23;1.13;;;6.30;99.90;;;;;;5047813;28;20256;-84
2022/03/27 02:25:51;;;;;;;7.20;2.10;;;6.20;99.90;;;;;;5081127;28;20308;-85
2022/03/27 02:28:17;;;;;;;1.07;1.07;;;6.10;99.90;;;;;;5065538;28;20315;-85
2022/03/27 02:30:43;;;;;;;1.50;1.40;;;6.10;99.90;;;;;;5064173;28;20213;-85
2022/03/27 02:33:09;;;;;;;0.70;0.70;;;6.10;99.90;;;;;;5065343;28;20554;-85
2022/03/27 02:35:35;;;;;;;3.13;1.43;;;6.20;99.90;;;;;;5065323;28;20185;-85
2022/03/27 02:38:04;;;;;;;3.63;1.53;;;6.30;99.90;;;;;;5065488;28;20742;-85
2022/03/27 02:40:31;;;;;;;1.00;1.00;;;6.40;99.90;;;;;;5046818;28;20703;-86
2022/03/27 02:42:59;;;;;;;1.53;1.40;;;6.40;99.90;;;;;;5080917;28;20225;-86
2022/03/27 02:45:26;;;;;;;2.43;1.20;;;6.40;99.90;;;;;;5064359;28;20217;-86
2022/03/27 02:47:54;;;;;;;2.63;1.07;;;6.40;99.90;;;;;;5066451;28;20252;-86
2022/03/27 02:50:20;;;;;;;3.67;1.50;;;6.40;99.90;;;;;;5082159;28;20233;-86
2022/03/27 02:52:46;;;;;;;5.73;1.70;;;6.50;99.90;;;;;;5081323;28;20275;-86
2022/03/27 02:55:12;;;;;;;1.90;1.80;;;6.50;99.90;;;;;;5081745;28;20332;-86
2022/03/27 02:57:38;;;;;;;3.00;1.43;;;6.60;99.90;;;;;;5081214;28;20213;-87
2022/03/27 03:00:08;;;;;;;3.13;1.50;;;6.60;99.90;;;;;;5047917;28;20205;-86
2022/03/27 03:02:35;;;;;;;12.57;2.33;;;6.70;99.90;;;;;;5056392;28;20193;-85
2022/03/27 03:05:02;;;;;;;3.83;0.97;;;6.70;99.90;;;;;;5065957;28;20227;-86
2022/03/27 03:07:28;;;;;;;10.13;1.37;;;6.60;99.90;;;;;;5047617;28;20267;-86
2022/03/27 03:09:55;;;;;;;2.10;1.90;;;6.50;99.90;;;;;;5063529;28;20212;-86
2022/03/27 03:12:21;;;;;;;2.23;0.97;;;6.40;99.90;;;;;;5047131;28;20213;-86
2022/03/27 03:14:47;;;;;;;1.50;1.10;;;6.40;99.90;;;;;;5081107;28;20225;-85
2022/03/27 03:17:13;;;;;;;1.10;0.90;;;6.50;99.90;;;;;;5063603;28;20219;-86
2022/03/27 03:19:39;;;;;;;1.83;1.70;;;6.40;99.90;;;;;;5065043;28;20306;-85
2022/03/27 03:22:05;;;;;;;6.13;1.93;;;6.40;99.90;;;;;;5080235;28;20677;-86
2022/03/27 03:24:41;;;;;;;9.60;1.83;;;6.40;99.90;;;;;;5065243;28;20225;-86
2022/03/27 03:27:06;;;;;;;1.53;1.23;;;6.30;99.90;;;;;;5065108;28;20254;-86
2022/03/27 03:29:33;;;;;;;2.13;1.00;;;6.40;99.90;;;;;;5064875;28;20572;-86
2022/03/27 03:31:59;;;;;;;2.47;2.27;;;6.50;99.90;;;;;;5065398;28;20229;-86
2022/03/27 03:34:24;;;;;;;3.13;1.93;;;6.40;99.90;;;;;;5046881;28;20340;-86
2022/03/27 03:36:50;;;;;;;3.73;1.90;;;6.40;99.90;;;;;;5063898;28;20268;-86
2022/03/27 03:39:16;;;;;;;7.03;2.73;;;6.40;99.90;;;;;;5046417;28;20197;-86
2022/03/27 03:41:42;;;;;;;0.83;0.83;;;6.30;99.90;;;;;;5064568;28;20186;-86
2022/03/27 03:44:07;;;;;;;3.30;2.47;;;6.30;99.90;;;;;;5079859;28;20700;-86
2022/03/27 03:46:34;;;;;;;5.63;2.07;;;6.30;99.90;;;;;;5064092;28;20686;-85
2022/03/27 03:49:00;;;;;;;5.93;1.73;;;6.20;99.90;;;;;;5080566;28;20240;-86
2022/03/27 03:51:25;;;;;;;2.60;0.93;;;6.00;99.90;;;;;;5064902;28;20225;-87
2022/03/27 03:53:51;;;;;;;6.03;0.83;;;6.00;99.90;;;;;;5064520;28;20677;-87
2022/03/27 03:56:17;;;;;;;9.50;1.73;;;6.00;99.90;;;;;;5046809;28;20231;-86
2022/03/27 03:58:43;;;;;;;0.63;0.63;;;6.00;99.90;;;;;;5079842;28;21101;-85
2022/03/27 04:01:09;;;;;;;21.23;1.57;;;5.90;99.90;;;;;;5063935;28;20256;-86
2022/03/27 04:03:34;;;;;;;2.60;0.93;;;5.90;99.90;;;;;;5046422;28;20982;-86
2022/03/27 04:06:00;;;;;;;5.67;1.83;;;5.90;99.90;;;;;;5066985;28;20280;-87
2022/03/27 04:08:26;;;;;;;2.93;2.73;;;5.90;99.90;;;;;;5049017;28;20197;-88
2022/03/27 04:10:51;;;;;;;1.07;0.60;;;5.90;99.90;;;;;;5048635;28;20221;-88
2022/03/27 04:13:18;;;;;;;3.50;1.13;;;6.00;99.90;;;;;;5065611;28;20220;-86
2022/03/27 04:15:43;;;;;;;2.17;1.40;;;6.00;99.90;;;;;;5065570;28;20274;-86
2022/03/27 04:18:09;;;;;;;1.00;0.90;;;5.90;99.90;;;;;;5065403;28;20197;-85
2022/03/27 04:20:35;;;;;;;9.57;1.37;;;5.80;99.90;;;;;;5065612;28;20236;-85
2022/03/27 04:23:01;;;;;;;2.37;1.10;;;5.70;99.90;;;;;;5048792;28;20256;-86
2022/03/27 04:25:27;;;;;;;7.33;1.90;;;5.80;99.90;;;;;;5048257;28;20739;-86
2022/03/27 04:27:54;;;;;;;1.70;1.60;;;5.70;99.90;;;;;;5065237;28;20217;-86
2022/03/27 04:30:20;;;;;;;7.40;1.37;;;5.70;99.90;;;;;;5048483;28;20213;-86
2022/03/27 04:32:47;;;;;;;2.33;1.73;;;5.80;99.90;;;;;;5065904;28;20307;-85
2022/03/27 04:35:13;;;;;;;2.40;1.23;;;5.80;99.90;;;;;;5047047;28;20241;-83
2022/03/27 04:37:44;;;;;;;5.43;2.80;;;5.80;99.90;;;;;;5045566;28;20227;-84
2022/03/27 04:40:13;;;;;;;2.63;1.30;;;5.90;99.90;;;;;;5038284;28;20248;-84
2022/03/27 04:42:39;;;;;;;2.13;1.57;;;5.90;99.90;;;;;;5055924;28;21164;-84
2022/03/27 04:45:06;;;;;;;1.40;1.30;;;6.00;99.90;;;;;;5054718;28;20559;-84
2022/03/27 04:47:32;;;;;;;11.83;2.17;;;6.00;99.90;;;;;;5054492;28;20240;-84
2022/03/27 04:49:58;;;;;;;18.77;1.20;;;6.00;99.90;;;;;;5079859;28;20220;-84
2022/03/27 04:52:24;;;;;;;0.80;0.80;;;6.00;99.90;;;;;;5063511;28;20220;-85
2022/03/27 04:54:50;;;;;;;2.60;2.40;;;6.00;99.90;;;;;;5062219;28;20229;-83
2022/03/27 04:57:16;;;;;;;7.70;2.13;;;6.00;99.90;;;;;;5062935;28;20189;-84
2022/03/27 04:59:42;;;;;;;5.93;2.07;;;6.00;99.90;;;;;;5062464;28;20192;-84
2022/03/27 05:02:07;;;;;;;9.80;0.93;;;6.00;99.90;;;;;;5046055;28;20221;-84
2022/03/27 05:04:33;;;;;;;5.33;2.57;;;6.00;99.90;;;;;;5063456;28;20229;-84
2022/03/27 05:06:59;;;;;;;8.80;2.40;;;5.90;99.90;;;;;;5045606;28;20236;-87
2022/03/27 05:09:25;;;;;;;2.83;1.57;;;5.90;99.90;;;;;;5045233;28;20590;-84
2022/03/27 05:11:50;;;;;;;6.13;2.57;;;5.90;99.90;;;;;;5029793;28;20189;-85
2022/03/27 05:14:16;;;;;;;3.20;1.73;;;5.90;99.90;;;;;;5060234;28;20643;-85
2022/03/27 05:16:42;;;;;;;3.60;1.60;;;5.90;99.90;;;;;;5060592;28;20221;-86
2022/03/27 05:19:08;;;;;;;1.03;0.63;;;6.00;99.90;;;;;;5044371;28;20221;-86
2022/03/27 05:21:35;;;;;;;3.97;1.67;;;6.00;99.90;;;;;;5045967;28;20224;-87
2022/03/27 05:24:01;;;;;;;5.17;2.10;;;6.00;99.90;;;;;;5081226;28;20189;-86
2022/03/27 05:26:27;;;;;;;9.50;2.67;;;6.10;99.90;;;;;;5064809;28;20185;-87
2022/03/27 05:28:54;;;;;;;3.03;1.47;;;6.00;99.90;;;;;;5047495;28;20228;-86
2022/03/27 05:31:20;;;;;;;5.63;1.70;;;6.10;99.90;;;;;;5080549;28;20217;-85
2022/03/27 05:33:46;;;;;;;4.53;2.87;;;6.20;99.90;;;;;;5064456;28;20229;-86
2022/03/27 05:36:12;;;;;;;2.93;1.27;;;6.20;99.90;;;;;;5064546;28;20197;-86
2022/03/27 05:38:40;;;;;;;6.80;2.90;;;6.40;99.90;;;;;;5045867;28;20189;-85
2022/03/27 05:41:09;;;;;;;8.07;1.00;;;6.60;99.90;;;;;;5066806;28;20266;-85
2022/03/27 05:43:35;;;;;;;4.07;1.17;;;6.90;99.90;;;;;;5066579;28;20221;-84
2022/03/27 05:46:02;;;;;;;5.30;2.93;;;6.90;99.90;;;;;;5049674;28;20221;-84
2022/03/27 05:48:28;;;;;;;15.27;2.27;;;7.30;99.90;;;;;;5066637;28;20229;-84
2022/03/27 05:50:54;;;;;;;1.83;1.20;;;8.10;99.90;;;;;;5066904;28;20204;-85
2022/03/27 05:53:20;;;;;;;5.70;1.30;;;8.80;99.90;;;;;;5066700;28;20228;-85
2022/03/27 05:55:47;;;;;;;2.17;1.93;;;9.40;99.90;;;;;;5082706;28;20758;-85
2022/03/27 05:58:13;;;;;;;8.03;1.73;;;10.00;99.90;;;;;;5066513;28;20232;-85
2022/03/27 06:00:40;;;;;;;4.97;2.00;;;10.10;99.90;;;;;;5082271;28;20239;-84
2022/03/27 06:03:06;;;;;;;24.77;1.70;;;10.70;99.90;;;;;;5067644;28;20281;-84
2022/03/27 06:05:32;;;;;;;35.47;4.00;;;11.30;99.90;;;;;;5065729;28;20284;-84
2022/03/27 06:07:59;;;;;;;5.77;3.03;;;12.20;99.90;;;;;;5065762;28;20225;-85
2022/03/27 06:10:31;;;;;;;2.97;1.10;;;12.20;99.90;;;;;;5048896;28;20221;-85
2022/03/27 06:12:58;;;;;;;15.90;2.30;;;12.30;99.90;;;;;;5065145;28;20224;-86
2022/03/27 06:15:24;;;;;;;6.17;2.67;;;12.40;99.90;;;;;;5066863;28;20229;-87
2022/03/27 06:17:52;;;;;;;3.50;1.33;;;12.50;99.90;;;;;;5067932;28;20193;-88
2022/03/27 06:20:20;;;;;;;3.07;1.23;;;12.80;99.90;;;;;;5049712;28;20213;-85
2022/03/27 06:22:47;;;;;;;6.03;1.87;;;13.00;99.90;;;;;;5082632;28;20221;-85
2022/03/27 06:25:15;;;;;;;6.37;1.63;;;13.00;99.90;;;;;;5048609;28;20305;-86
2022/03/27 06:27:42;;;;;;;6.10;2.30;;;12.90;99.90;;;;;;5065309;28;21029;-85
2022/03/27 06:30:10;;;;;;;8.60;1.47;;;12.30;99.90;;;;;;5065626;28;20593;-84
2022/03/27 06:32:36;;;;;;;10.67;2.20;;;11.60;99.90;;;;;;5081802;28;20548;-84
2022/03/27 06:35:07;;;;;;;17.10;3.43;;;11.60;99.90;;;;;;5048291;28;20306;-86
2022/03/27 06:37:33;;;;;;;8.47;2.00;;;11.20;99.90;;;;;;5067039;28;21007;-83
2022/03/27 06:40:00;;;;;;;7.97;1.47;;;11.40;99.90;;;;;;5065193;28;20221;-83
2022/03/27 06:42:26;;;;;;;7.90;2.23;;;12.00;99.90;;;;;;5081408;28;20213;-84
2022/03/27 06:44:54;;;;;;;7.50;1.43;;;12.70;99.90;;;;;;5066890;28;20230;-84
2022/03/27 06:47:20;;;;;;;14.67;2.20;;;13.50;99.90;;;;;;5064836;28;20209;-84
2022/03/27 06:49:46;;;;;;;19.83;3.73;;;14.40;99.90;;;;;;5047471;28;20240;-84
2022/03/27 06:52:13;;;;;;;9.23;2.80;;;14.70;99.90;;;;;;5066593;28;20636;-83
2022/03/27 06:54:38;;;;;;;6.20;1.63;;;16.30;99.90;;;;;;5083672;28;20748;-85
2022/03/27 06:57:04;;;;;;;2.47;1.33;;;17.60;99.90;;;;;;5083145;28;20193;-83
2022/03/27 07:03:01;;;;;;;2.57;1.20;;;18.10;99.90;;;;;;5068615;28;20258;-88
2022/03/27 07:05:03;;;;;;;9.17;1.97;;;18.00;99.90;;;;;;5081091;28;20275;-88
2022/03/27 07:07:29;;;;;;;12.93;4.63;;;17.20;99.90;;;;;;5049867;28;20217;-86
2022/03/27 07:09:55;;;;;;;4.40;2.30;;;16.90;99.90;;;;;;5068051;28;20247;-86
2022/03/27 07:12:20;;;;;;;6.23;1.00;;;16.70;99.90;;;;;;5068265;28;20221;-88
2022/03/27 07:14:46;;;;;;;6.13;2.13;;;16.80;99.90;;;;;;5067277;28;20209;-87
2022/03/27 07:17:17;;;;;;;10.77;2.67;;;16.90;99.90;;;;;;5049487;28;20756;-86
2022/03/27 07:19:46;;;;;;;7.73;2.33;;;15.90;99.90;;;;;;5083553;28;20568;-86
2022/03/27 07:22:13;;;;;;;7.97;1.80;;;16.10;99.90;;;;;;5048595;28;20296;-87
2022/03/27 07:24:38;;;;;;;9.60;3.13;;;16.40;99.90;;;;;;5049414;28;20592;-88
2022/03/27 07:27:04;;;;;;;6.67;2.57;;;15.80;99.90;;;;;;5065758;28;20193;-83
2022/03/27 07:29:35;;;;;;;10.00;2.00;;;16.50;99.90;;;;;;5049560;28;20911;-86
2022/03/27 07:32:01;;;;;;;10.33;2.20;;;17.30;99.90;;;;;;5065175;28;20224;-83
2022/03/27 07:34:27;;;;;;;4.47;1.60;;;17.60;99.90;;;;;;5048911;28;20233;-84
2022/03/27 07:36:53;;;;;;;6.43;2.57;;;17.20;99.90;;;;;;5048468;28;20216;-83
2022/03/27 07:39:21;;;;;;;11.70;2.00;;;17.20;99.90;;;;;;5049028;28;20280;-84
2022/03/27 07:41:47;;;;;;;9.47;3.30;;;16.30;99.90;;;;;;5049370;28;20223;-88
2022/03/27 07:44:13;;;;;;;21.23;2.60;;;16.80;99.90;;;;;;5084054;28;20256;-89
2022/03/27 07:46:38;;;;;;;7.20;2.37;;;16.70;99.90;;;;;;5050057;28;20244;-90
2022/03/27 07:49:04;;;;;;;9.33;1.90;;;17.50;99.90;;;;;;5083716;28;20237;-87
2022/03/27 07:51:30;;;;;;;6.20;2.07;;;18.80;99.90;;;;;;5084587;28;20278;-89
2022/03/27 07:53:55;;;;;;;17.30;2.57;;;19.70;99.90;;;;;;5085746;28;20205;-88
2022/03/27 07:56:21;;;;;;;6.60;2.33;;;18.90;99.90;;;;;;5066940;28;20673;-88
2022/03/27 07:58:47;;;;;;;9.10;2.67;;;19.40;99.90;;;;;;5049591;28;20217;-88
2022/03/27 08:01:15;;;;;;;6.33;1.73;;;18.70;99.90;;;;;;5049620;28;20328;-89
2022/03/27 08:03:44;;;;;;;9.83;2.80;;;18.10;99.90;;;;;;5065467;28;20225;-89
2022/03/27 08:06:10;;;;;;;5.30;1.60;;;18.50;99.90;;;;;;5081113;28;20185;-90
2022/03/27 08:08:36;;;;;;;5.83;1.97;;;18.30;99.90;;;;;;5081709;28;20208;-88
2022/03/27 08:11:02;;;;;;;11.67;3.07;;;18.50;99.90;;;;;;5047238;28;20232;-89
2022/03/27 08:13:28;;;;;;;14.20;2.50;;;18.40;99.90;;;;;;5047147;28;20601;-88
2022/03/27 08:15:54;;;;;;;10.27;2.23;;;18.60;99.90;;;;;;5082278;28;20217;-89
2022/03/27 08:18:20;;;;;;;6.97;2.20;;;19.00;99.90;;;;;;5065022;28;20217;-90
2022/03/27 08:20:46;;;;;;;6.23;2.23;;;19.20;99.90;;;;;;5048155;28;20192;-89
2022/03/27 08:23:12;;;;;;;6.43;2.10;;;18.30;99.90;;;;;;5081628;28;20217;-90
2022/03/27 08:28:23;;;;;;;5.40;2.40;;;17.10;99.90;;;;;;5065298;28;20221;-88
2022/03/27 08:30:49;;;;;;;9.60;3.03;;;17.50;99.90;;;;;;5047995;28;20224;-90
2022/03/27 08:33:16;;;;;;;5.37;1.63;;;17.20;99.90;;;;;;5048387;28;20549;-89
2022/03/27 08:35:43;;;;;;;5.67;2.17;;;16.50;99.90;;;;;;5064640;28;20929;-91
2022/03/27 08:38:14;;;;;;;8.00;2.07;;;17.60;99.90;;;;;;5046947;28;21041;-90
2022/03/27 08:40:45;;;;;;;9.87;3.93;;;18.70;99.90;;;;;;5048166;28;20697;-90
2022/03/27 08:43:13;;;;;;;12.83;2.30;;;18.50;99.90;;;;;;5081147;28;20209;-90
2022/03/27 08:45:39;;;;;;;8.10;2.50;;;17.50;99.90;;;;;;5047367;28;20234;-90
2022/03/27 08:48:05;;;;;;;12.20;2.70;;;17.60;99.90;;;;;;5081450;28;20307;-90
2022/03/27 08:50:50;;;;;;;8.33;2.87;;;17.70;99.90;;;;;;5056733;28;20232;-91
2022/03/27 08:53:28;;;;;;;7.93;2.80;;;18.90;99.90;;;;;;5041944;28;20763;-90
2022/03/27 08:56:00;;;;;;;10.50;2.97;;;17.90;99.90;;;;;;5045649;28;20225;-89
2022/03/27 08:58:38;;;;;;;5.67;2.93;;;17.70;99.90;;;;;;5065552;28;20320;-87
2022/03/27 09:01:05;;;;;;;4.50;2.27;;;16.00;99.90;;;;;;5080940;28;20228;-90
2022/03/27 09:03:31;;;;;;;10.47;2.17;;;16.10;99.90;;;;;;5082498;28;20220;-91
2022/03/27 09:05:59;;;;;;;5.40;1.40;;;16.80;99.90;;;;;;5057784;28;20197;-86
2022/03/27 09:08:25;;;;;;;8.73;2.67;;;17.60;99.90;;;;;;5081959;28;20587;-84
2022/03/27 09:10:51;;;;;;;9.47;3.03;;;17.80;99.90;;;;;;5063213;28;20220;-85
2022/03/27 09:13:19;;;;;;;5.53;2.43;;;17.90;99.90;;;;;;5064123;28;20670;-84
2022/03/27 09:15:55;;;;;;;7.23;2.33;;;18.60;99.90;;;;;;5062662;28;20244;-84
2022/03/27 09:18:21;;;;;;;9.13;2.10;;;18.50;99.90;;;;;;5038779;28;20216;-84
2022/03/27 09:20:51;;;;;;;4.47;1.70;;;16.00;99.90;;;;;;5046575;28;20557;-87
2022/03/27 09:23:22;;;;;;;13.60;3.30;;;14.60;99.90;;;;;;5063430;28;20213;-84
2022/03/27 09:25:57;;;;;;;14.33;2.70;;;13.90;99.90;;;;;;5046003;28;20217;-84
2022/03/27 09:28:24;;;;;;;5.17;2.57;;;14.00;99.90;;;;;;5064044;28;20221;-86
2022/03/27 09:30:50;;;;;;;9.40;1.93;;;14.50;99.90;;;;;;5046188;28;20221;-85
2022/03/27 09:33:48;;;;;;;10.83;2.77;;;14.60;99.90;;;;;;5062981;28;20653;-84
2022/03/27 09:36:13;;;;;;;6.90;2.17;;;15.20;99.90;;;;;;5079131;28;20197;-86
2022/03/27 09:38:39;;;;;;;4.73;1.80;;;15.40;99.90;;;;;;5045798;28;20197;-88
2022/03/27 09:41:07;;;;;;;7.70;3.20;;;15.10;99.90;;;;;;5064416;28;20217;-86
2022/03/27 09:43:33;;;;;;;10.83;2.00;;;15.10;99.90;;;;;;5071799;28;20209;-87
2022/03/27 09:46:01;;;;;;;9.63;2.27;;;15.10;99.90;;;;;;5062012;28;20247;-87
2022/03/27 09:48:28;;;;;;;6.27;2.13;;;16.20;99.90;;;;;;5064024;28;20279;-87
2022/03/27 09:50:57;;;;;;;2.60;1.60;;;16.90;99.90;;;;;;5079740;28;20189;-85
2022/03/27 09:53:29;;;;;;;7.67;2.60;;;17.30;99.90;;;;;;5079707;28;20296;-85
2022/03/27 09:55:58;;;;;;;8.40;2.60;;;17.70;99.90;;;;;;5046119;28;20220;-85
2022/03/27 09:58:42;;;;;;;8.90;3.33;;;17.00;99.90;;;;;;5045267;28;20418;-85
2022/03/27 10:01:10;;;;;;;10.83;2.77;;;17.10;99.90;;;;;;5079187;28;20236;-86
2022/03/27 10:03:59;;;;;;;3.97;1.40;;;16.70;99.90;;;;;;5045793;28;20307;-87
2022/03/27 10:06:40;;;;;;;5.30;2.50;;;16.80;99.90;;;;;;5035802;28;20237;-86
2022/03/27 10:09:10;;;;;;;6.67;1.93;;;17.60;99.90;;;;;;5077590;28;20685;-85
2022/03/27 10:11:38;;;;;;;10.97;2.27;;;17.60;99.90;;;;;;5079872;28;20266;-86
2022/03/27 10:14:06;;;;;;;9.67;2.63;;;17.00;99.90;;;;;;5045935;28;20320;-86
2022/03/27 10:16:37;;;;;;;7.33;2.07;;;16.50;99.90;;;;;;5063331;28;20296;-85
2022/03/27 10:19:20;;;;;;;4.77;2.03;;;16.80;99.90;;;;;;5045629;28;20338;-85
2022/03/27 10:21:48;;;;;;;5.43;2.43;;;16.30;99.90;;;;;;5064240;28;20213;-84
2022/03/27 10:24:15;;;;;;;4.33;2.03;;;16.70;99.90;;;;;;5062027;28;20244;-85
2022/03/27 10:26:43;;;;;;;5.83;2.03;;;16.90;99.90;;;;;;5065689;28;20189;-85
2022/03/27 10:29:10;;;;;;;6.00;1.90;;;17.40;99.90;;;;;;5067500;28;20221;-85
2022/03/27 10:31:38;;;;;;;6.00;1.73;;;17.80;99.90;;;;;;5065607;28;20229;-85
2022/03/27 10:34:05;;;;;;;8.00;2.70;;;17.40;99.90;;;;;;5048349;28;20553;-84
2022/03/27 10:36:48;;;;;;;8.27;2.43;;;16.90;99.90;;;;;;5064770;28;20220;-84
2022/03/27 10:39:28;;;;;;;6.40;1.80;;;17.40;99.90;;;;;;5066878;28;20181;-85
2022/03/27 10:42:17;;;;;;;12.13;3.27;;;17.80;99.90;;;;;;5049151;28;20177;-86
2022/03/27 10:44:56;;;;;;;7.70;2.70;;;17.30;99.90;;;;;;5049632;28;20221;-85
2022/03/27 10:47:24;;;;;;;6.00;2.40;;;17.80;99.90;;;;;;5058159;28;20735;-86
2022/03/27 10:50:02;;;;;;;9.73;2.37;;;17.10;99.90;;;;;;5067420;28;20241;-84
2022/03/27 10:52:34;;;;;;;15.77;2.27;;;17.30;99.90;;;;;;5067899;28;20240;-87
2022/03/27 10:55:14;;;;;;;8.67;2.50;;;17.80;99.90;;;;;;5042649;28;20236;-87
2022/03/27 10:57:42;;;;;;;5.97;1.60;;;16.80;99.90;;;;;;5067563;28;20225;-85
2022/03/27 11:00:10;;;;;;;4.30;1.50;;;17.30;99.90;;;;;;5048616;28;20660;-86
2022/03/27 11:02:53;;;;;;;6.10;2.20;;;17.40;99.90;;;;;;5067130;28;20186;-87
2022/03/27 11:05:36;;;;;;;7.37;1.87;;;16.50;99.90;;;;;;5082421;28;20209;-85
2022/03/27 11:08:17;;;;;;;8.40;2.30;;;16.30;99.90;;;;;;5067323;28;20228;-86
2022/03/27 11:10:52;;;;;;;7.03;1.43;;;16.60;99.90;;;;;;5083190;28;20220;-85
2022/03/27 11:13:28;;;;;;;7.83;1.20;;;17.00;99.90;;;;;;5048448;28;20213;-86
2022/03/27 11:16:11;;;;;;;7.77;2.13;;;17.00;99.90;;;;;;5069551;28;20259;-91
2022/03/27 11:18:39;;;;;;;7.10;1.43;;;16.90;99.90;;;;;;5070493;28;20240;-91
2022/03/27 11:21:07;;;;;;;4.60;1.50;;;17.10;99.90;;;;;;5071383;28;20201;-92
2022/03/27 11:23:41;;;;;;;3.30;1.13;;;17.20;99.90;;;;;;5068102;28;20204;-93
2022/03/27 11:26:19;;;;;;;5.37;2.40;;;16.30;99.90;;;;;;5050489;28;20299;-92
2022/03/27 11:28:47;;;;;;;5.77;1.30;;;16.00;99.90;;;;;;5047320;28;20227;-93
2022/03/27 11:31:14;;;;;;;3.73;1.73;;;16.80;99.90;;;;;;5047659;28;20320;-93
2022/03/27 11:33:40;;;;;;;3.23;1.00;;;16.70;99.90;;;;;;5049550;28;20221;-92
2022/03/27 11:36:14;;;;;;;3.40;1.10;;;16.30;99.90;;;;;;5065357;28;20589;-94
2022/03/27 11:38:52;;;;;;;4.23;1.17;;;15.60;99.90;;;;;;5046856;28;20198;-93
2022/03/27 11:41:25;;;;;;;4.27;1.30;;;15.50;99.90;;;;;;5063706;28;20213;-94
2022/03/27 11:43:55;;;;;;;1.27;0.70;;;15.20;99.90;;;;;;5061695;28;20221;-85
2022/03/27 11:46:26;;;;;;;3.30;0.90;;;15.00;99.90;;;;;;5078937;28;20240;-85
2022/03/27 11:48:53;;;;;;;1.33;0.70;;;14.60;99.90;;;;;;5080128;28;20820;-86
2022/03/27 11:51:19;;;;;;;1.77;0.87;;;14.70;99.50;;;;;;5079839;28;20201;-85
2022/03/27 11:53:45;;;;;;;5.53;1.33;;;14.50;99.90;;;;;;5064848;28;20574;-87
2022/03/27 11:56:11;;;;;;;1.30;0.77;;;14.60;99.90;;;;;;5063866;28;20225;-85
2022/03/27 11:58:38;;;;;;;5.60;1.17;;;14.60;93.90;;;;;;5046439;28;20316;-87
2022/03/27 12:01:08;;;;;;;0.70;0.63;;;14.40;97.40;;;;;;5055762;28;20236;-86
2022/03/27 12:03:37;;;;;;;5.30;1.00;;;14.10;99.90;;;;;;5064453;28;20240;-86
2022/03/27 12:06:05;;;;;;;1.30;0.70;;;14.00;99.80;;;;;;5062047;28;20200;-85
2022/03/27 12:08:36;;;;;;;2.53;0.83;;;14.20;99.90;;;;;;5061777;28;20197;-86
2022/03/27 12:11:06;;;;;;;5.97;1.20;;;14.50;99.90;;;;;;5046116;28;20653;-86
2022/03/27 12:13:43;;;;;;;2.43;0.83;;;14.10;96.00;;;;;;5038774;28;20641;-85
2022/03/27 12:16:16;;;;;;;3.93;0.77;;;14.10;95.50;;;;;;5045240;28;20229;-86
2022/03/27 12:18:47;;;;;;;2.50;1.00;;;13.90;99.90;;;;;;5046062;28;20271;-86
2022/03/27 12:21:14;;;;;;;4.23;1.20;;;14.00;99.90;;;;;;5062057;28;20339;-89
2022/03/27 12:23:48;;;;;;;2.77;1.00;;;13.90;99.90;;;;;;5063824;28;20186;-87
2022/03/27 12:32:07;;;;;;;6.77;1.00;;;13.70;99.90;;;;;;5064105;28;20339;-84
2022/03/27 12:34:38;;;;;;;5.70;0.87;;;14.10;99.90;;;;;;5045703;28;20624;-84
2022/03/27 12:37:12;;;;;;;6.23;1.90;;;14.40;99.90;;;;;;5046052;28;20300;-84
2022/03/27 12:39:40;;;;;;;9.33;1.00;;;14.30;99.90;;;;;;5062915;28;20308;-84
2022/03/27 12:42:06;;;;;;;4.13;1.83;;;13.80;99.90;;;;;;5044519;28;20713;-86
2022/03/27 12:44:51;;;;;;;9.07;1.43;;;13.80;99.90;;;;;;5063140;28;20243;-84
2022/03/27 12:47:17;;;;;;;4.27;1.30;;;14.00;99.90;;;;;;5063464;28;20245;-82
2022/03/27 12:49:50;;;;;;;2.70;1.03;;;13.90;99.90;;;;;;5044508;28;20237;-85
2022/03/27 12:52:17;;;;;;;1.33;0.80;;;13.90;99.90;;;;;;5078393;28;20233;-85
2022/03/27 12:55:04;;;;;;;5.20;1.87;;;13.80;99.90;;;;;;5077646;28;20236;-84
2022/03/27 12:57:59;;;;;;;10.00;2.27;;;13.60;99.90;;;;;;5043937;28;20217;-85
2022/03/27 13:00:31;;;;;;;8.70;1.73;;;13.60;99.90;;;;;;5043526;28;20548;-86
2022/03/27 13:03:17;;;;;;;5.93;1.10;;;13.50;99.90;;;;;;5077290;28;20819;-84
2022/03/27 13:06:01;;;;;;;4.37;1.40;;;13.50;99.90;;;;;;5063540;28;20236;-84
2022/03/27 13:08:38;;;;;;;10.33;1.93;;;13.40;99.90;;;;;;5044200;28;20213;-84